Time;durP1;ratioP1;P1;durP2;ratioP2;P2;SDS_P1;SDS_P2;PMS_P1;PMS_P2;Temp;Humidity;BMP_temperature;BMP_pressure;BME280_temperature;BME280_humidity;BME280_pressure;Samples;Min_cycle;Max_cycle;Signal;HPM_P1;HPM_P2
2023/03/12 00:00:49;;;;;;;4.97;2.15;;;-2.90;99.90;;;;;;5042819;28;25073;-73
2023/03/12 00:03:17;;;;;;;8.20;2.53;;;-2.90;99.90;;;;;;5042247;28;25074;-73
2023/03/12 00:05:45;;;;;;;6.38;2.35;;;-2.90;99.90;;;;;;5022864;28;25130;-73
2023/03/12 00:08:12;;;;;;;5.38;1.67;;;-2.90;99.90;;;;;;5021498;28;25083;-73
2023/03/12 00:10:40;;;;;;;4.50;2.08;;;-2.90;99.90;;;;;;5039022;28;25049;-74
2023/03/12 00:13:08;;;;;;;3.20;1.58;;;-2.90;99.90;;;;;;5039211;28;25130;-74
2023/03/12 00:15:39;;;;;;;3.80;1.60;;;-2.90;99.90;;;;;;5039038;28;25068;-73
2023/03/12 00:18:06;;;;;;;3.28;1.67;;;-2.90;99.90;;;;;;5038943;28;25077;-73
2023/03/12 00:20:33;;;;;;;5.05;1.50;;;-2.90;99.90;;;;;;5039108;28;25060;-74
2023/03/12 00:23:01;;;;;;;7.63;3.05;;;-2.90;99.90;;;;;;5039366;28;25063;-74
2023/03/12 00:25:29;;;;;;;3.97;1.45;;;-3.00;99.90;;;;;;5038839;28;25054;-73
2023/03/12 00:27:56;;;;;;;6.03;2.03;;;-2.90;99.90;;;;;;5038749;28;25061;-74
2023/03/12 00:30:23;;;;;;;4.85;2.50;;;-2.90;99.90;;;;;;5021157;28;25084;-73
2023/03/12 00:32:51;;;;;;;9.50;2.38;;;-2.90;99.90;;;;;;5038671;28;25049;-73
2023/03/12 00:35:18;;;;;;;3.85;2.05;;;-2.90;99.90;;;;;;5039212;28;25093;-73
2023/03/12 00:37:45;;;;;;;7.30;1.67;;;-2.90;99.90;;;;;;5038583;28;25078;-74
2023/03/12 00:40:13;;;;;;;4.47;1.45;;;-3.00;99.90;;;;;;5039313;28;25110;-73
2023/03/12 00:42:41;;;;;;;5.95;1.75;;;-3.00;99.90;;;;;;5038507;28;25070;-73
2023/03/12 00:45:09;;;;;;;4.30;1.50;;;-3.00;99.90;;;;;;5038785;28;25083;-73
2023/03/12 00:47:36;;;;;;;7.57;1.58;;;-3.00;99.90;;;;;;5038431;28;25147;-73
2023/03/12 00:50:05;;;;;;;4.70;1.58;;;-3.00;99.90;;;;;;5038527;28;25079;-73
2023/03/12 00:52:32;;;;;;;6.45;2.03;;;-3.10;99.90;;;;;;5020857;28;25113;-73
2023/03/12 00:54:59;;;;;;;3.58;1.73;;;-3.10;99.90;;;;;;5038260;28;25063;-73
2023/03/12 00:57:26;;;;;;;4.45;1.60;;;-3.10;99.90;;;;;;5038783;28;25086;-73
2023/03/12 00:59:54;;;;;;;3.85;1.50;;;-3.10;99.90;;;;;;5038129;28;25101;-73
2023/03/12 01:02:21;;;;;;;5.38;2.38;;;-3.10;99.90;;;;;;5038587;28;25062;-73
2023/03/12 01:04:48;;;;;;;5.32;2.30;;;-3.10;99.90;;;;;;5020441;28;25047;-73
2023/03/12 01:07:15;;;;;;;7.13;1.98;;;-3.10;99.90;;;;;;5038051;28;25084;-73
2023/03/12 01:09:43;;;;;;;6.20;2.03;;;-3.10;99.90;;;;;;5020323;28;25064;-73
2023/03/12 01:12:10;;;;;;;4.38;2.03;;;-3.00;99.90;;;;;;5038650;28;25078;-74
2023/03/12 01:14:37;;;;;;;4.93;2.00;;;-3.00;99.90;;;;;;5037802;28;25053;-74
2023/03/12 01:17:04;;;;;;;5.30;2.28;;;-3.00;99.90;;;;;;5037670;28;25130;-74
2023/03/12 01:19:32;;;;;;;3.00;1.83;;;-3.00;99.90;;;;;;5020137;28;25112;-73
2023/03/12 01:21:59;;;;;;;3.28;1.95;;;-3.00;99.90;;;;;;5038272;28;25075;-73
2023/03/12 01:24:27;;;;;;;5.18;2.10;;;-3.10;99.90;;;;;;5037644;28;25061;-73
2023/03/12 01:26:55;;;;;;;7.10;2.22;;;-3.10;99.90;;;;;;5037657;28;25074;-73
2023/03/12 01:29:23;;;;;;;4.25;1.90;;;-3.10;99.90;;;;;;5037628;28;25119;-73
2023/03/12 01:31:50;;;;;;;5.55;2.17;;;-3.10;99.90;;;;;;5037480;28;25067;-74
2023/03/12 01:34:18;;;;;;;5.68;2.35;;;-3.20;99.90;;;;;;5037996;28;25072;-74
2023/03/12 01:36:46;;;;;;;6.85;2.65;;;-3.20;99.90;;;;;;5020572;28;25051;-74
2023/03/12 01:39:14;;;;;;;10.00;1.90;;;-3.20;99.90;;;;;;5037939;28;25125;-73
2023/03/12 01:41:41;;;;;;;4.95;2.03;;;-3.20;99.90;;;;;;5037340;28;25067;-73
2023/03/12 01:44:14;;;;;;;3.72;1.67;;;-3.20;99.90;;;;;;5037838;28;25069;-74
2023/03/12 01:46:44;;;;;;;3.38;1.55;;;-3.20;99.90;;;;;;5037332;28;25084;-73
2023/03/12 01:49:19;;;;;;;4.25;1.95;;;-3.20;99.90;;;;;;5037463;28;25058;-73
2023/03/12 01:52:18;;;;;;;5.13;2.10;;;-3.30;99.90;;;;;;5037150;28;25074;-74
2023/03/12 01:54:53;;;;;;;6.82;2.13;;;-3.30;99.90;;;;;;5029147;28;25088;-73
2023/03/12 01:57:55;;;;;;;9.98;2.40;;;-3.30;99.90;;;;;;5037217;28;25057;-73
2023/03/12 02:00:28;;;;;;;6.32;1.92;;;-3.20;99.90;;;;;;5015918;28;25144;-73
2023/03/12 02:03:06;;;;;;;7.07;1.95;;;-3.20;99.90;;;;;;5036922;28;25083;-74
2023/03/12 02:05:51;;;;;;;4.90;1.92;;;-3.20;99.90;;;;;;5037935;28;25101;-73
2023/03/12 02:08:19;;;;;;;4.80;1.88;;;-3.20;99.90;;;;;;5037141;28;25050;-74
2023/03/12 02:10:46;;;;;;;5.40;2.05;;;-3.20;99.90;;;;;;5036764;28;25053;-73
2023/03/12 02:13:13;;;;;;;2.95;1.88;;;-3.30;99.90;;;;;;5036813;28;25065;-74
2023/03/12 02:15:41;;;;;;;8.57;3.38;;;-3.30;99.90;;;;;;5037363;28;25084;-74
2023/03/12 02:18:12;;;;;;;6.07;1.83;;;-3.30;99.90;;;;;;5037265;28;25070;-74
2023/03/12 02:21:01;;;;;;;3.25;1.65;;;-3.30;99.90;;;;;;5019369;28;25121;-73
2023/03/12 02:23:28;;;;;;;3.90;1.67;;;-3.30;99.90;;;;;;5036916;28;25069;-74
2023/03/12 02:25:57;;;;;;;4.63;2.15;;;-3.30;99.90;;;;;;5036876;28;25103;-74
2023/03/12 02:28:28;;;;;;;8.95;2.00;;;-3.30;99.90;;;;;;5036458;28;25120;-74
2023/03/12 02:31:03;;;;;;;3.25;1.73;;;-3.30;99.90;;;;;;5036428;28;25061;-74
2023/03/12 02:33:30;;;;;;;6.63;2.10;;;-3.30;99.90;;;;;;5018959;28;25075;-74
2023/03/12 02:35:57;;;;;;;3.95;1.88;;;-3.20;99.90;;;;;;5037014;28;25095;-74
2023/03/12 02:38:49;;;;;;;5.32;1.60;;;-3.10;99.90;;;;;;5018897;28;25063;-74
2023/03/12 02:41:22;;;;;;;9.25;2.38;;;-3.00;99.90;;;;;;5036387;28;25081;-74
2023/03/12 02:44:02;;;;;;;5.03;1.60;;;-3.00;99.90;;;;;;5036567;28;25077;-74
2023/03/12 02:46:40;;;;;;;3.03;1.40;;;-3.10;99.90;;;;;;5036553;28;25089;-74
2023/03/12 02:49:10;;;;;;;5.53;1.95;;;-3.10;99.90;;;;;;5036306;28;25068;-74
2023/03/12 02:51:42;;;;;;;4.85;1.88;;;-3.10;99.90;;;;;;5036047;28;25127;-74
2023/03/12 02:54:10;;;;;;;4.40;2.03;;;-3.20;99.90;;;;;;5036223;28;25078;-74
2023/03/12 02:56:39;;;;;;;6.85;2.03;;;-3.20;99.90;;;;;;5036939;28;25108;-74
2023/03/12 02:59:07;;;;;;;3.53;1.90;;;-3.20;99.90;;;;;;5036182;28;25066;-74
2023/03/12 03:01:34;;;;;;;3.17;1.48;;;-3.30;99.90;;;;;;5036531;28;25121;-74
2023/03/12 03:04:03;;;;;;;3.33;1.50;;;-3.30;99.90;;;;;;5036474;28;25134;-74
2023/03/12 03:06:31;;;;;;;10.38;2.53;;;-3.40;99.90;;;;;;5036614;28;25094;-74
2023/03/12 03:08:59;;;;;;;6.72;2.15;;;-3.40;99.90;;;;;;5036108;28;25074;-74
2023/03/12 03:11:26;;;;;;;6.15;2.58;;;-3.40;99.90;;;;;;5036343;28;25066;-74
2023/03/12 03:13:54;;;;;;;6.95;2.67;;;-3.40;99.90;;;;;;5036367;28;25057;-74
2023/03/12 03:16:22;;;;;;;4.82;2.10;;;-3.40;99.90;;;;;;5036806;28;25107;-74
2023/03/12 03:18:50;;;;;;;4.18;1.80;;;-3.40;99.90;;;;;;5036019;28;25058;-74
2023/03/12 03:21:17;;;;;;;7.63;2.33;;;-3.50;99.90;;;;;;5036044;28;25063;-74
2023/03/12 03:23:49;;;;;;;4.03;1.60;;;-3.50;99.90;;;;;;5035988;28;25065;-72
2023/03/12 03:26:20;;;;;;;10.25;2.53;;;-3.50;99.90;;;;;;5036178;28;25083;-74
2023/03/12 03:28:48;;;;;;;5.90;2.33;;;-3.50;99.90;;;;;;5035914;28;25077;-74
2023/03/12 03:31:15;;;;;;;3.40;1.92;;;-3.50;99.90;;;;;;5035875;28;25066;-74
2023/03/12 03:33:42;;;;;;;6.63;2.05;;;-3.50;99.90;;;;;;5035880;28;25081;-74
2023/03/12 03:36:13;;;;;;;6.20;2.30;;;-3.50;99.90;;;;;;5036635;28;25045;-73
2023/03/12 03:38:45;;;;;;;6.10;1.98;;;-3.50;99.90;;;;;;5035684;28;25076;-74
2023/03/12 03:41:14;;;;;;;4.25;2.10;;;-3.50;99.90;;;;;;5036548;28;25077;-74
2023/03/12 03:43:41;;;;;;;7.78;2.35;;;-3.50;99.90;;;;;;5022081;28;25054;-74
2023/03/12 03:46:11;;;;;;;7.18;2.38;;;-3.50;99.90;;;;;;5039472;28;25058;-73
2023/03/12 03:48:38;;;;;;;8.00;2.42;;;-3.50;99.90;;;;;;5021916;28;25057;-74
2023/03/12 03:51:07;;;;;;;3.45;2.00;;;-3.50;99.90;;;;;;5021809;28;25049;-74
2023/03/12 03:53:35;;;;;;;7.35;2.00;;;-3.60;99.90;;;;;;5021866;28;25065;-74
2023/03/12 03:56:11;;;;;;;3.38;1.98;;;-3.60;99.90;;;;;;5021781;28;25107;-74
2023/03/12 03:58:38;;;;;;;6.78;2.25;;;-3.60;99.90;;;;;;5039357;28;25133;-74
2023/03/12 04:01:06;;;;;;;4.50;2.30;;;-3.60;99.90;;;;;;5039981;28;25069;-74
2023/03/12 04:03:34;;;;;;;6.45;2.03;;;-3.60;99.90;;;;;;5039256;28;25075;-74
2023/03/12 04:06:04;;;;;;;6.05;2.92;;;-3.60;99.90;;;;;;5039470;28;25081;-74
2023/03/12 04:08:34;;;;;;;7.78;2.33;;;-3.50;99.90;;;;;;5039155;28;25137;-74
2023/03/12 04:11:10;;;;;;;4.47;2.50;;;-3.50;99.90;;;;;;5038985;28;25063;-74
2023/03/12 04:13:38;;;;;;;7.57;2.20;;;-3.50;99.90;;;;;;5021556;28;25112;-74
2023/03/12 04:16:06;;;;;;;6.30;2.42;;;-3.40;99.90;;;;;;5039600;28;25144;-74
2023/03/12 04:18:35;;;;;;;8.00;2.38;;;-3.40;99.90;;;;;;5039248;28;25077;-74
2023/03/12 04:21:04;;;;;;;4.45;2.33;;;-3.40;99.90;;;;;;5038999;28;25064;-74
2023/03/12 04:23:31;;;;;;;6.38;2.75;;;-3.40;99.90;;;;;;5038902;28;25123;-74
2023/03/12 04:25:59;;;;;;;5.97;2.53;;;-3.40;99.90;;;;;;5021225;28;25057;-74
2023/03/12 04:28:26;;;;;;;4.15;2.33;;;-3.40;99.90;;;;;;5038762;28;25075;-74
2023/03/12 04:31:02;;;;;;;5.18;2.17;;;-3.40;99.90;;;;;;5039353;28;25100;-74
2023/03/12 04:33:32;;;;;;;3.97;2.15;;;-3.30;99.90;;;;;;5038693;28;25054;-74
2023/03/12 04:35:59;;;;;;;6.30;2.75;;;-3.30;99.90;;;;;;5021117;28;25082;-74
2023/03/12 04:38:27;;;;;;;7.90;2.80;;;-3.20;99.90;;;;;;5021030;28;25068;-74
2023/03/12 04:41:06;;;;;;;5.95;2.28;;;-3.20;99.90;;;;;;5039256;28;25076;-74
2023/03/12 04:43:34;;;;;;;8.13;3.10;;;-3.20;99.90;;;;;;5038517;28;25069;-74
2023/03/12 04:46:01;;;;;;;4.97;2.55;;;-3.20;99.90;;;;;;5038347;28;25079;-74
2023/03/12 04:48:31;;;;;;;5.60;2.33;;;-3.20;99.90;;;;;;5038313;28;25052;-74
2023/03/12 04:50:59;;;;;;;5.10;2.70;;;-3.20;99.90;;;;;;5038973;28;25120;-74
2023/03/12 04:53:26;;;;;;;5.38;2.50;;;-3.10;99.90;;;;;;5037788;28;25070;-74
2023/03/12 04:55:53;;;;;;;4.18;2.20;;;-3.20;99.90;;;;;;5038584;28;25052;-74
2023/03/12 04:58:21;;;;;;;5.00;2.42;;;-3.10;99.90;;;;;;5038507;28;25141;-74
2023/03/12 05:00:49;;;;;;;5.65;2.60;;;-3.10;99.90;;;;;;5038418;28;25128;-74
2023/03/12 05:03:17;;;;;;;5.57;2.92;;;-3.10;99.90;;;;;;5038128;28;25109;-74
2023/03/12 05:05:44;;;;;;;8.15;3.00;;;-3.10;99.90;;;;;;5038371;28;25077;-74
2023/03/12 05:08:11;;;;;;;5.57;2.45;;;-3.10;99.90;;;;;;5038032;28;25137;-74
2023/03/12 05:10:39;;;;;;;7.85;2.30;;;-3.10;99.90;;;;;;5020318;28;25043;-74
2023/03/12 05:13:17;;;;;;;4.25;2.28;;;-3.10;99.90;;;;;;5037909;28;25077;-74
2023/03/12 05:15:46;;;;;;;4.10;2.38;;;-3.00;99.90;;;;;;5020690;28;25119;-75
2023/03/12 05:18:13;;;;;;;7.97;3.08;;;-3.00;99.90;;;;;;5037875;28;25070;-74
2023/03/12 05:20:41;;;;;;;5.25;2.55;;;-2.90;99.90;;;;;;5037854;28;25062;-74
2023/03/12 05:23:08;;;;;;;10.68;2.97;;;-2.80;99.90;;;;;;5037730;28;25060;-74
2023/03/12 05:25:39;;;;;;;6.30;2.70;;;-2.80;99.90;;;;;;5037866;28;25156;-75
2023/03/12 05:28:07;;;;;;;11.60;3.00;;;-2.70;99.90;;;;;;5037669;28;25109;-74
2023/03/12 05:30:34;;;;;;;8.50;2.70;;;-2.60;99.90;;;;;;5038139;28;25069;-74
2023/03/12 05:33:02;;;;;;;9.82;2.50;;;-2.50;99.90;;;;;;5037819;28;25078;-74
2023/03/12 05:35:29;;;;;;;5.53;2.50;;;-2.30;99.90;;;;;;5020142;28;25099;-75
2023/03/12 05:37:56;;;;;;;7.18;2.58;;;-2.20;99.90;;;;;;5037769;28;25064;-74
2023/03/12 05:40:23;;;;;;;4.53;2.78;;;-2.10;99.90;;;;;;5038039;28;24954;-74
2023/03/12 05:42:51;;;;;;;5.35;2.40;;;-2.10;99.90;;;;;;5037401;28;25076;-75
2023/03/12 05:45:19;;;;;;;6.15;2.53;;;-2.00;99.90;;;;;;5037820;28;25082;-75
2023/03/12 05:47:46;;;;;;;6.55;2.30;;;-1.90;99.90;;;;;;5037804;28;25077;-75
2023/03/12 05:50:15;;;;;;;4.93;2.30;;;-1.80;99.90;;;;;;5019673;28;25111;-74
2023/03/12 05:52:43;;;;;;;5.22;2.08;;;-1.70;99.90;;;;;;5037192;28;25061;-75
2023/03/12 05:55:10;;;;;;;5.93;2.33;;;-1.60;99.90;;;;;;5037821;28;25094;-75
2023/03/12 05:57:37;;;;;;;3.97;1.83;;;-1.50;99.90;;;;;;5019585;28;24766;-75
2023/03/12 06:00:09;;;;;;;6.53;1.85;;;-1.50;99.90;;;;;;5019492;28;25070;-75
2023/03/12 06:02:36;;;;;;;3.72;1.70;;;-1.40;99.90;;;;;;5036987;28;25126;-75
2023/03/12 06:05:04;;;;;;;6.55;2.42;;;-1.30;99.90;;;;;;5018690;28;25113;-75
2023/03/12 06:07:31;;;;;;;5.97;1.88;;;-1.20;99.90;;;;;;5037024;28;25057;-75
2023/03/12 06:09:58;;;;;;;13.10;2.20;;;-1.20;99.90;;;;;;5036805;28;25052;-75
2023/03/12 06:12:26;;;;;;;7.20;2.22;;;-1.10;99.90;;;;;;5036878;28;25118;-75
2023/03/12 06:14:53;;;;;;;3.22;1.40;;;-1.00;99.90;;;;;;5036808;28;25071;-75
2023/03/12 06:17:20;;;;;;;3.05;1.73;;;-1.00;99.90;;;;;;5037209;28;25060;-75
2023/03/12 06:19:51;;;;;;;9.48;3.00;;;-0.90;99.90;;;;;;5036732;28;25129;-75
2023/03/12 06:22:19;;;;;;;3.05;1.55;;;-0.80;99.90;;;;;;5036695;28;25059;-75
2023/03/12 06:24:46;;;;;;;2.90;1.40;;;-0.80;99.90;;;;;;5037187;28;25057;-75
2023/03/12 06:27:14;;;;;;;4.03;1.50;;;-0.70;99.90;;;;;;5036619;28;25163;-75
2023/03/12 06:29:42;;;;;;;6.75;1.60;;;-0.70;99.90;;;;;;5019037;28;25061;-75
2023/03/12 06:32:09;;;;;;;5.47;1.55;;;-0.60;99.90;;;;;;5036497;28;25103;-75
2023/03/12 06:34:36;;;;;;;3.83;1.80;;;-0.60;99.90;;;;;;5036477;28;25080;-75
2023/03/12 06:37:05;;;;;;;5.30;1.83;;;-0.50;99.90;;;;;;5036509;28;25095;-75
2023/03/12 06:39:33;;;;;;;4.97;1.77;;;-0.50;99.90;;;;;;5036409;28;25049;-74
2023/03/12 06:42:01;;;;;;;4.00;1.90;;;-0.40;99.90;;;;;;5036511;28;25070;-75
2023/03/12 06:44:28;;;;;;;4.85;2.05;;;-0.40;99.90;;;;;;5036666;28;25120;-75
2023/03/12 06:46:56;;;;;;;4.00;1.77;;;-0.30;99.90;;;;;;5053333;28;25097;-75
2023/03/12 06:49:24;;;;;;;4.57;1.80;;;-0.30;99.90;;;;;;5056258;28;25055;-75
2023/03/12 06:51:51;;;;;;;5.00;1.50;;;-0.30;99.90;;;;;;5056283;28;25060;-75
2023/03/12 06:54:19;;;;;;;5.13;1.67;;;-0.20;99.90;;;;;;5056724;28;25111;-75
2023/03/12 06:56:46;;;;;;;5.30;1.90;;;-0.10;99.90;;;;;;5056159;28;25081;-76
2023/03/12 06:59:13;;;;;;;4.18;1.75;;;0.00;99.90;;;;;;5056095;28;25099;-75
2023/03/12 07:01:41;;;;;;;4.55;1.90;;;0.00;99.90;;;;;;5056573;28;25100;-74
2023/03/12 07:04:09;;;;;;;10.65;3.72;;;0.10;99.90;;;;;;5054990;28;25068;-75
2023/03/12 07:06:36;;;;;;;11.32;2.03;;;0.20;99.90;;;;;;5056163;28;25131;-78
2023/03/12 07:09:03;;;;;;;5.65;1.90;;;0.30;99.90;;;;;;5056102;28;25073;-81
2023/03/12 07:11:31;;;;;;;3.53;2.30;;;0.50;99.90;;;;;;5058830;28;25048;-87
2023/03/12 07:13:58;;;;;;;8.07;1.40;;;0.50;99.90;;;;;;5054609;28;25123;-88
2023/03/12 07:16:25;;;;;;;3.83;1.60;;;0.60;99.90;;;;;;5057900;28;25066;-90
2023/03/12 07:18:53;;;;;;;2.58;1.13;;;0.70;99.90;;;;;;5059941;28;25061;-93
2023/03/12 07:21:22;;;;;;;5.45;1.70;;;0.80;99.90;;;;;;5059960;28;25102;-91
2023/03/12 07:23:50;;;;;;;4.70;1.80;;;0.90;99.90;;;;;;5059246;28;25059;-89
2023/03/12 07:26:17;;;;;;;2.63;1.50;;;1.00;99.90;;;;;;5059178;28;25074;-91
2023/03/12 07:28:44;;;;;;;11.57;1.75;;;1.10;99.90;;;;;;5060146;28;25075;-81
2023/03/12 07:31:12;;;;;;;4.30;1.73;;;1.30;99.90;;;;;;5058871;28;25063;-82
2023/03/12 07:33:39;;;;;;;4.00;1.70;;;1.40;99.90;;;;;;5060098;28;25098;-83
2023/03/12 07:36:06;;;;;;;6.38;1.88;;;1.50;99.90;;;;;;5059265;28;25080;-82
2023/03/12 07:38:34;;;;;;;3.60;1.38;;;1.50;99.90;;;;;;5058625;28;25118;-83
2023/03/12 07:41:01;;;;;;;4.55;1.70;;;1.60;99.90;;;;;;5059765;28;25073;-81
2023/03/12 07:43:28;;;;;;;7.10;1.88;;;1.60;99.90;;;;;;5059625;28;25115;-80
2023/03/12 07:45:55;;;;;;;6.88;1.42;;;1.70;99.90;;;;;;5058084;28;25078;-78
2023/03/12 07:48:22;;;;;;;8.23;3.05;;;1.80;99.90;;;;;;5058546;28;25107;-80
2023/03/12 07:50:50;;;;;;;6.55;2.28;;;1.90;99.90;;;;;;5059592;28;25125;-85
2023/03/12 07:53:17;;;;;;;9.38;3.17;;;1.90;99.90;;;;;;5059394;28;25070;-79
2023/03/12 07:55:45;;;;;;;15.30;4.32;;;2.00;99.90;;;;;;5058358;28;25087;-80
2023/03/12 07:58:14;;;;;;;12.65;3.70;;;2.10;99.90;;;;;;5059461;28;25069;-92
2023/03/12 08:00:45;;;;;;;9.73;2.03;;;2.30;99.90;;;;;;5058805;28;25109;-84
2023/03/12 08:03:13;;;;;;;12.68;2.90;;;2.40;99.90;;;;;;5058105;28;25073;-84
2023/03/12 08:05:41;;;;;;;9.90;2.15;;;2.40;99.90;;;;;;5059150;28;25095;-81
2023/03/12 08:08:08;;;;;;;8.02;1.23;;;2.40;99.90;;;;;;5058089;28;25133;-82
2023/03/12 08:10:36;;;;;;;3.90;1.30;;;2.50;99.90;;;;;;5057397;28;25091;-78
2023/03/12 08:13:03;;;;;;;9.77;2.25;;;2.60;99.90;;;;;;5059354;28;25103;-79
2023/03/12 08:15:30;;;;;;;4.75;1.83;;;2.60;99.90;;;;;;5059428;28;25081;-80
2023/03/12 08:17:58;;;;;;;5.00;1.88;;;2.60;99.90;;;;;;5059050;28;25084;-84
2023/03/12 08:20:25;;;;;;;7.10;1.73;;;2.50;99.90;;;;;;5056287;28;25102;-86
2023/03/12 08:22:52;;;;;;;6.65;1.98;;;2.60;99.90;;;;;;5057992;28;25146;-79
2023/03/12 08:25:20;;;;;;;6.57;1.75;;;2.60;99.90;;;;;;5058107;28;25096;-86
2023/03/12 08:27:47;;;;;;;6.82;1.92;;;2.70;99.90;;;;;;5055184;28;25064;-82
2023/03/12 08:30:15;;;;;;;10.60;1.90;;;2.70;99.90;;;;;;5058080;28;25124;-82
2023/03/12 08:32:42;;;;;;;3.05;0.98;;;2.80;99.90;;;;;;5058966;28;25110;-79
2023/03/12 08:35:10;;;;;;;8.25;2.47;;;2.90;99.90;;;;;;5058825;28;25112;-80
2023/03/12 08:37:37;;;;;;;5.78;2.05;;;3.00;99.90;;;;;;5057431;28;25062;-81
2023/03/12 08:40:15;;;;;;;4.05;1.55;;;3.10;99.90;;;;;;5057527;28;25066;-81
2023/03/12 08:42:43;;;;;;;6.68;1.98;;;3.10;99.90;;;;;;5058528;28;25069;-81
2023/03/12 08:45:13;;;;;;;6.18;1.70;;;3.30;99.90;;;;;;5056710;28;25103;-81
2023/03/12 08:47:42;;;;;;;7.72;2.15;;;3.40;99.90;;;;;;5041299;28;25130;-81
2023/03/12 08:50:12;;;;;;;4.20;1.35;;;3.40;99.90;;;;;;5020776;28;25069;-82
2023/03/12 08:52:39;;;;;;;9.07;1.67;;;3.40;99.90;;;;;;5020751;28;25065;-82
2023/03/12 08:55:07;;;;;;;4.78;1.05;;;3.50;99.90;;;;;;5038309;28;25095;-82
2023/03/12 08:57:34;;;;;;;6.13;2.05;;;3.60;99.90;;;;;;5020697;28;25059;-81
2023/03/12 09:00:04;;;;;;;6.10;1.38;;;3.70;99.90;;;;;;5038488;28;25055;-82
2023/03/12 09:02:31;;;;;;;9.38;1.85;;;3.80;99.90;;;;;;5038325;28;25110;-83
2023/03/12 09:05:03;;;;;;;4.97;1.60;;;3.80;99.90;;;;;;5020578;28;25064;-85
2023/03/12 09:07:34;;;;;;;10.60;1.42;;;3.80;99.90;;;;;;5038556;28;25054;-81
2023/03/12 09:10:07;;;;;;;4.47;1.42;;;3.90;99.90;;;;;;5020840;28;25068;-93
2023/03/12 09:12:35;;;;;;;12.02;2.85;;;3.90;99.90;;;;;;5037677;28;25077;-91
2023/03/12 09:15:02;;;;;;;3.42;1.05;;;4.00;99.90;;;;;;5020728;28;25052;-86
2023/03/12 09:17:30;;;;;;;3.78;1.75;;;4.00;99.90;;;;;;5021516;28;25063;-94
2023/03/12 09:19:58;;;;;;;2.17;1.10;;;4.00;99.90;;;;;;5020745;28;25045;-89
2023/03/12 09:22:29;;;;;;;5.93;2.08;;;4.00;99.90;;;;;;5020974;28;25117;-82
2023/03/12 09:24:56;;;;;;;2.97;1.00;;;4.00;99.90;;;;;;5038026;28;25083;-89
2023/03/12 09:27:24;;;;;;;5.97;1.83;;;4.10;99.90;;;;;;5020813;28;25071;-91
2023/03/12 09:29:53;;;;;;;4.05;1.00;;;4.00;99.90;;;;;;5039657;28;25094;-89
2023/03/12 09:32:22;;;;;;;8.25;1.83;;;4.00;99.90;;;;;;5021765;28;25058;-93
2023/03/12 09:34:49;;;;;;;6.00;2.00;;;3.90;99.90;;;;;;5020449;28;25077;-82
2023/03/12 09:37:17;;;;;;;7.65;1.40;;;3.90;99.90;;;;;;5038744;28;25113;-91
2023/03/12 09:39:44;;;;;;;4.90;2.30;;;4.00;99.90;;;;;;5020397;28;25113;-89
2023/03/12 09:42:27;;;;;;;6.30;1.52;;;4.00;99.90;;;;;;5020791;28;25116;-89
2023/03/12 09:44:59;;;;;;;4.70;1.27;;;4.00;99.90;;;;;;5020418;28;25060;-89
2023/03/12 09:47:35;;;;;;;8.50;1.95;;;3.90;99.90;;;;;;5020030;28;25081;-86
2023/03/12 09:50:26;;;;;;;4.38;1.25;;;3.90;99.90;;;;;;5019971;28;25077;-81
2023/03/12 09:53:14;;;;;;;6.43;1.75;;;3.90;99.90;;;;;;5036194;28;25056;-96
2023/03/12 09:55:47;;;;;;;6.47;1.38;;;3.70;99.90;;;;;;5024582;28;25089;-87
2023/03/12 09:58:26;;;;;;;4.72;2.13;;;3.60;99.90;;;;;;5020020;28;25101;-87
2023/03/12 10:01:38;;;;;;;3.17;1.25;;;3.50;99.90;;;;;;5038332;28;25140;-90
2023/03/12 10:04:12;;;;;;;8.70;1.35;;;3.30;99.90;;;;;;5010552;28;25111;-90
2023/03/12 10:06:57;;;;;;;5.05;1.40;;;3.10;99.90;;;;;;5020500;28;25102;-90
2023/03/12 10:09:52;;;;;;;3.50;1.60;;;3.10;99.90;;;;;;5020819;28;25073;-93
2023/03/12 10:13:05;;;;;;;8.27;1.98;;;3.00;99.90;;;;;;5019965;28;25063;-92
2023/03/12 10:16:04;;;;;;;6.00;1.88;;;2.90;99.90;;;;;;4985116;28;25088;-91
2023/03/12 10:18:47;;;;;;;4.90;1.98;;;2.90;99.90;;;;;;5020058;28;25056;-88
2023/03/12 10:21:46;;;;;;;7.25;1.77;;;3.00;99.90;;;;;;5019747;28;25073;-89
2023/03/12 10:24:41;;;;;;;6.60;2.05;;;3.20;99.90;;;;;;5033977;28;25086;-89
2023/03/12 10:27:15;;;;;;;8.43;3.05;;;3.30;99.90;;;;;;5019106;28;25077;-84
2023/03/12 10:29:46;;;;;;;17.17;6.68;;;3.30;99.90;;;;;;5019059;28;25049;-89
2023/03/12 10:32:21;;;;;;;10.95;3.10;;;3.30;99.90;;;;;;5019360;28;25047;-88
2023/03/12 10:35:18;;;;;;;11.27;2.50;;;3.40;99.90;;;;;;5019350;28;25116;-87
2023/03/12 10:37:50;;;;;;;10.07;3.47;;;3.40;99.90;;;;;;5037047;28;25148;-93
2023/03/12 10:40:23;;;;;;;6.75;2.55;;;3.40;99.90;;;;;;5019851;28;25119;-93
2023/03/12 10:42:51;;;;;;;12.30;3.88;;;3.30;99.90;;;;;;5019805;28;25075;-95
2023/03/12 10:45:29;;;;;;;8.00;3.38;;;3.30;99.90;;;;;;5019793;28;25042;-88
2023/03/12 10:48:02;;;;;;;6.80;3.25;;;3.20;99.90;;;;;;5036518;28;25071;-87
2023/03/12 10:50:34;;;;;;;6.05;3.00;;;3.40;99.90;;;;;;5018449;28;25079;-87
2023/03/12 10:53:31;;;;;;;9.55;3.38;;;3.40;99.90;;;;;;5019103;28;25066;-87
2023/03/12 10:56:01;;;;;;;5.75;3.67;;;3.50;99.90;;;;;;5035951;28;25064;-86
2023/03/12 10:58:34;;;;;;;7.20;3.13;;;3.50;99.90;;;;;;5036652;28;25096;-87
2023/03/12 11:01:03;;;;;;;4.60;2.20;;;3.40;99.90;;;;;;5019140;28;25059;-85
2023/03/12 11:03:32;;;;;;;4.32;2.60;;;3.30;99.90;;;;;;5017463;28;25081;-86
2023/03/12 11:06:05;;;;;;;10.45;3.58;;;3.20;99.90;;;;;;5018679;28;25058;-86
2023/03/12 11:08:35;;;;;;;3.60;1.95;;;3.00;99.90;;;;;;5017163;28;25106;-85
2023/03/12 11:11:04;;;;;;;9.98;3.15;;;2.90;99.90;;;;;;5035757;28;25114;-86
2023/03/12 11:13:37;;;;;;;7.22;2.17;;;2.80;99.90;;;;;;5036169;28;25074;-85
2023/03/12 11:16:27;;;;;;;5.10;2.05;;;2.70;99.90;;;;;;5018428;28;25075;-86
2023/03/12 11:19:05;;;;;;;12.07;2.97;;;2.70;99.90;;;;;;5036049;28;25097;-86
2023/03/12 11:21:37;;;;;;;5.50;2.33;;;2.70;99.90;;;;;;5018748;28;25056;-86
2023/03/12 11:24:10;;;;;;;8.68;3.33;;;2.70;99.90;;;;;;5018053;28;25054;-86
2023/03/12 11:27:13;;;;;;;7.47;3.03;;;2.70;99.90;;;;;;5036168;28;25129;-86
2023/03/12 11:29:48;;;;;;;8.10;3.97;;;2.70;99.90;;;;;;5018635;28;25053;-85
2023/03/12 11:32:37;;;;;;;8.13;3.67;;;2.80;99.90;;;;;;5017783;28;25091;-86
2023/03/12 11:35:11;;;;;;;8.05;3.03;;;2.80;99.90;;;;;;5018065;28;25132;-90
2023/03/12 11:38:07;;;;;;;7.60;2.97;;;2.80;99.90;;;;;;5019046;28;25080;-89
2023/03/12 11:40:50;;;;;;;6.68;3.47;;;2.70;99.90;;;;;;5035303;28;25132;-90
2023/03/12 11:43:36;;;;;;;6.85;3.20;;;2.70;99.90;;;;;;5019321;28;25129;-85
2023/03/12 11:46:50;;;;;;;5.20;3.20;;;2.70;99.90;;;;;;5033422;28;25138;-86
2023/03/12 11:49:22;;;;;;;5.65;3.10;;;2.80;99.90;;;;;;5011436;28;25111;-88
2023/03/12 11:52:37;;;;;;;5.60;3.00;;;2.80;99.90;;;;;;5056384;28;25091;-88
2023/03/12 11:55:05;;;;;;;5.53;2.80;;;2.90;99.90;;;;;;5054440;28;25073;-88
2023/03/12 11:57:38;;;;;;;7.85;2.60;;;2.90;99.90;;;;;;5055165;28;25067;-89
2023/03/12 12:00:19;;;;;;;7.82;3.15;;;2.90;99.90;;;;;;5055975;28;25098;-91
2023/03/12 12:03:04;;;;;;;7.28;3.05;;;2.80;99.90;;;;;;5057756;28;25106;-91
2023/03/12 12:05:53;;;;;;;7.53;2.90;;;2.80;99.90;;;;;;5059114;28;25147;-89
2023/03/12 12:08:41;;;;;;;5.00;3.00;;;2.90;99.90;;;;;;5058740;28;25055;-90
2023/03/12 12:11:24;;;;;;;5.15;2.22;;;2.80;99.90;;;;;;5058682;28;25061;-89
2023/03/12 12:14:00;;;;;;;9.35;3.72;;;2.80;99.90;;;;;;5058574;28;25069;-90
2023/03/12 12:16:54;;;;;;;6.05;3.10;;;2.70;99.90;;;;;;5059763;28;25058;-89
2023/03/12 12:19:45;;;;;;;8.52;3.90;;;2.70;99.90;;;;;;5058545;28;25057;-90
2023/03/12 12:22:28;;;;;;;8.00;3.17;;;2.70;99.90;;;;;;5045223;28;25061;-88
2023/03/12 12:25:05;;;;;;;3.97;2.67;;;2.70;99.90;;;;;;5059606;28;25137;-89
2023/03/12 12:27:45;;;;;;;5.78;2.95;;;2.70;99.90;;;;;;5058375;28;25085;-89
2023/03/12 12:30:26;;;;;;;5.18;2.95;;;2.70;99.90;;;;;;5058445;28;25121;-89
2023/03/12 12:33:09;;;;;;;3.83;1.63;;;2.70;99.90;;;;;;5058408;28;25061;-88
2023/03/12 12:35:39;;;;;;;5.55;2.70;;;2.80;99.90;;;;;;5056126;28;25070;-89
2023/03/12 12:38:17;;;;;;;5.55;2.97;;;2.80;99.90;;;;;;5058127;28;25078;-89
2023/03/12 12:40:51;;;;;;;4.53;3.15;;;2.80;99.90;;;;;;5058638;28;25131;-89
2023/03/12 12:43:38;;;;;;;4.70;2.92;;;2.80;99.90;;;;;;5057923;28;25057;-89
2023/03/12 12:46:12;;;;;;;6.40;3.10;;;2.80;99.90;;;;;;5049129;28;25105;-84
2023/03/12 12:48:48;;;;;;;9.00;3.30;;;2.80;99.90;;;;;;5037196;28;25111;-83
2023/03/12 12:51:16;;;;;;;;;;;2.80;99.90;;;;;;5039091;28;25157;-83
2023/03/12 12:53:49;;;;;;;3.25;1.88;;;2.90;99.90;;;;;;5036584;28;24073;-83
2023/03/12 12:56:22;;;;;;;3.80;2.28;;;3.00;99.90;;;;;;5020973;28;25063;-84
2023/03/12 12:59:23;;;;;;;4.45;2.53;;;3.00;99.90;;;;;;5020691;28;25056;-81
2023/03/12 13:01:54;;;;;;;2.58;1.85;;;3.00;99.90;;;;;;5038579;28;25060;-80
2023/03/12 13:04:42;;;;;;;4.28;2.70;;;3.00;99.90;;;;;;5039469;28;25093;-81
2023/03/12 13:07:13;;;;;;;5.18;3.00;;;3.00;99.90;;;;;;5038520;28;25050;-85
2023/03/12 13:09:49;;;;;;;6.03;2.90;;;3.00;99.90;;;;;;5020710;28;25078;-83
2023/03/12 13:12:46;;;;;;;4.72;2.90;;;3.00;99.90;;;;;;5037983;28;25051;-81
2023/03/12 13:15:29;;;;;;;4.32;3.03;;;3.00;99.90;;;;;;5038494;28;25062;-81